Time;durP1;ratioP1;P1;durP2;ratioP2;P2;SDS_P1;SDS_P2;PMS_P1;PMS_P2;Temp;Humidity;BMP_temperature;BMP_pressure;BME280_temperature;BME280_humidity;BME280_pressure;Samples;Min_cycle;Max_cycle;Signal;HPM_P1;HPM_P2
2023/08/28 04:06:19;;;;;;;;;17.75;17.25;;;;;;;;5847110;47;10000457;-57
2023/08/28 05:30:21;;;;;;;;;18.00;18.00;;;;;;;;6313674;31;10000040;-58
2023/08/28 05:36:24;;;;;;;;;19.00;17.25;;;;;;;;6491751;31;8984;-58
2023/08/28 05:42:27;;;;;;;;;19.50;18.50;;;;;;;;6491533;39;8932;-58
2023/08/28 05:48:29;;;;;;;;;19.50;19.25;;;;;;;;6492154;31;8991;-54
2023/08/28 05:54:32;;;;;;;;;14.75;14.50;;;;;;;;6490312;39;8999;-57
2023/08/28 06:00:34;;;;;;;;;18.50;16.50;;;;;;;;6490852;39;8870;-57
2023/08/28 06:06:41;;;;;;;;;17.00;16.50;;;;;;;;6490817;39;8941;-56
2023/08/28 06:12:44;;;;;;;;;17.25;16.25;;;;;;;;6486357;46;8915;-56
2023/08/28 06:18:46;;;;;;;;;16.75;16.75;;;;;;;;6486985;39;8946;-58
2023/08/28 06:24:52;;;;;;;;;12.75;10.50;;;;;;;;6486184;46;8923;-57
2023/08/28 06:30:55;;;;;;;;;16.25;16.25;;;;;;;;6487549;31;8895;-57
2023/08/28 06:36:58;;;;;;;;;17.00;16.25;;;;;;;;6485576;31;9020;-59
2023/08/28 06:43:02;;;;;;;;;19.00;16.50;;;;;;;;6484094;31;9013;-61
2023/08/28 06:49:05;;;;;;;;;22.25;20.00;;;;;;;;6483957;39;8898;-57
2023/08/28 08:58:04;;;;;;;;;;;;;;;;;;2889432;54;3274147075;31
2023/08/28 09:04:08;;;;;;;;;14.50;14.50;;;;;;;;6483855;31;14907;-61
2023/08/28 09:10:14;;;;;;;;;15.00;12.80;;;;;;;;6419292;36;5001140;-60
2023/08/28 09:16:18;;;;;;;;;16.00;16.00;;;;;;;;6485468;31;8878;-62
2023/08/28 09:22:27;;;;;;;;;26.75;24.25;;;;;;;;6486271;31;9029;-62
2023/08/28 09:28:41;;;;;;;;;14.75;14.75;;;;;;;;6486024;31;8950;-61
2023/08/28 09:34:44;;;;;;;;;13.00;11.50;;;;;;;;6486064;39;9639;-61
2023/08/28 09:40:46;;;;;;;;;13.75;12.75;;;;;;;;6482214;39;8972;-61
2023/08/28 09:46:49;;;;;;;;;12.50;12.50;;;;;;;;6486417;39;8961;-61
2023/08/28 09:52:54;;;;;;;;;12.25;12.25;;;;;;;;6486516;39;9771;-64
2023/08/28 09:58:57;;;;;;;;;22.50;21.00;;;;;;;;6485702;46;8951;-61
2023/08/28 10:05:04;;;;;;;;;18.25;17.00;;;;;;;;6486122;39;8934;-61
2023/08/28 10:11:08;;;;;;;;;17.50;16.50;;;;;;;;6485815;39;8935;-62
2023/08/28 10:17:14;;;;;;;;;19.00;17.50;;;;;;;;6486880;39;8888;-62
2023/08/28 10:23:21;;;;;;;;;36.75;31.00;;;;;;;;6484851;46;8977;-61
2023/08/28 10:29:26;;;;;;;;;11.75;10.75;;;;;;;;6485149;46;8887;-60
2023/08/28 10:35:32;;;;;;;;;14.75;14.00;;;;;;;;6484917;31;9123;-60
2023/08/28 10:41:38;;;;;;;;;12.75;12.75;;;;;;;;6484649;39;9063;-61
2023/08/28 10:47:50;;;;;;;;;11.75;11.75;;;;;;;;6487445;39;8946;-60
2023/08/28 10:53:53;;;;;;;;;14.50;13.25;;;;;;;;6485839;39;8978;-62
2023/08/28 11:00:18;;;;;;;;;20.25;20.25;;;;;;;;6486431;39;8951;-60
2023/08/28 11:06:43;;;;;;;;;15.50;14.00;;;;;;;;6486462;31;8975;-59
2023/08/28 11:13:01;;;;;;;;;15.00;11.25;;;;;;;;6486501;31;8966;-60
2023/08/28 11:19:07;;;;;;;;;18.00;16.25;;;;;;;;6486000;39;9044;-61
2023/08/28 11:25:12;;;;;;;;;14.25;12.00;;;;;;;;6484743;46;8942;-62
2023/08/28 11:31:33;;;;;;;;;14.75;13.75;;;;;;;;6488096;39;9594;-59
2023/08/28 11:37:41;;;;;;;;;15.00;13.25;;;;;;;;6485945;46;8963;-59
2023/08/28 11:43:46;;;;;;;;;17.00;15.75;;;;;;;;6485883;39;8856;-59
2023/08/28 11:49:49;;;;;;;;;15.75;14.00;;;;;;;;6483150;46;8990;-59
2023/08/28 11:55:54;;;;;;;;;11.75;11.75;;;;;;;;6483656;39;8990;-58
2023/08/28 12:01:59;;;;;;;;;12.75;12.00;;;;;;;;6483301;39;8939;-58
2023/08/28 12:08:07;;;;;;;;;15.75;14.25;;;;;;;;6483500;47;9045;-59
2023/08/28 12:14:15;;;;;;;;;12.50;11.25;;;;;;;;6483782;39;9977;-61
2023/08/28 12:20:19;;;;;;;;;12.75;11.25;;;;;;;;6483535;39;8915;-62
2023/08/28 12:26:24;;;;;;;;;11.00;10.25;;;;;;;;6468317;39;8919;-59
2023/08/28 12:32:30;;;;;;;;;12.00;12.00;;;;;;;;6483572;39;8962;-61
2023/08/28 12:38:47;;;;;;;;;12.50;12.50;;;;;;;;6483322;39;9122;-60
2023/08/28 12:44:50;;;;;;;;;13.25;12.50;;;;;;;;6483066;39;8958;-58
2023/08/28 12:50:54;;;;;;;;;9.20;8.20;;;;;;;;6351641;36;10002945;-59
2023/08/28 12:56:58;;;;;;;;;10.75;10.75;;;;;;;;6480420;31;8999;-60
2023/08/28 13:03:01;;;;;;;;;21.75;19.75;;;;;;;;6484324;39;9602;-57
2023/08/28 13:09:05;;;;;;;;;8.75;8.50;;;;;;;;6485569;39;8935;-56
2023/08/28 13:15:10;;;;;;;;;11.75;10.75;;;;;;;;6485886;46;8928;-54
2023/08/28 13:21:20;;;;;;;;;14.50;13.50;;;;;;;;6485653;46;8917;-55
2023/08/28 13:27:24;;;;;;;;;20.50;19.50;;;;;;;;6482375;31;9158;-55
2023/08/28 13:33:27;;;;;;;;;16.25;14.75;;;;;;;;6483463;39;9071;-54
2023/08/28 13:39:29;;;;;;;;;13.00;13.00;;;;;;;;6484621;39;9019;-51
2023/08/28 13:45:33;;;;;;;;;16.50;13.50;;;;;;;;6485457;31;8924;-54
2023/08/28 13:51:37;;;;;;;;;16.00;16.00;;;;;;;;6487532;31;8982;-56
2023/08/28 13:57:40;;;;;;;;;20.25;17.00;;;;;;;;6488644;39;8881;-55
2023/08/28 14:03:44;;;;;;;;;16.25;16.00;;;;;;;;6293222;31;10001078;-57
2023/08/28 14:09:47;;;;;;;;;20.00;18.75;;;;;;;;6488437;36;8854;-55
2023/08/28 14:15:51;;;;;;;;;15.00;15.00;;;;;;;;6489252;46;8930;-58
2023/08/28 14:21:55;;;;;;;;;13.50;13.25;;;;;;;;6488638;31;8861;-55
2023/08/28 14:27:58;;;;;;;;;15.00;14.75;;;;;;;;6489489;39;8855;-54
2023/08/28 14:34:17;;;;;;;;;19.00;19.00;;;;;;;;6489629;31;8975;-56
2023/08/28 14:40:20;;;;;;;;;16.00;16.00;;;;;;;;6489435;39;9649;-53
2023/08/28 14:46:43;;;;;;;;;16.00;16.00;;;;;;;;6487080;46;9001;-55
2023/08/28 14:52:45;;;;;;;;;15.50;14.75;;;;;;;;6488322;39;8899;-55
2023/08/28 14:58:51;;;;;;;;;15.00;14.50;;;;;;;;6488653;46;8946;-55
2023/08/28 15:04:53;;;;;;;;;15.50;14.50;;;;;;;;6487228;39;8898;-56
2023/08/28 15:10:55;;;;;;;;;15.75;14.25;;;;;;;;6488260;31;8854;-58
2023/08/28 15:16:58;;;;;;;;;18.50;18.00;;;;;;;;6481027;46;8953;-55
2023/08/28 15:23:01;;;;;;;;;15.00;14.00;;;;;;;;6487555;39;9202;-57
2023/08/28 15:29:04;;;;;;;;;13.50;13.00;;;;;;;;6487495;31;8955;-56
2023/08/28 15:35:09;;;;;;;;;17.00;15.50;;;;;;;;6486283;31;9041;-53
2023/08/28 15:41:12;;;;;;;;;13.25;13.25;;;;;;;;6487848;39;8907;-53
2023/08/28 15:47:14;;;;;;;;;11.00;10.75;;;;;;;;6486431;39;8955;-57
2023/08/28 15:53:16;;;;;;;;;16.00;16.00;;;;;;;;6486233;39;9558;-57
2023/08/28 15:59:19;;;;;;;;;16.50;16.00;;;;;;;;6486031;47;9059;-54
2023/08/28 16:05:23;;;;;;;;;15.75;15.50;;;;;;;;6487417;31;9017;-55
2023/08/28 16:11:26;;;;;;;;;12.50;12.25;;;;;;;;6486857;31;8941;-55
2023/08/28 16:17:29;;;;;;;;;21.00;18.00;;;;;;;;6484942;39;8919;-57
2023/08/28 16:23:31;;;;;;;;;22.75;22.00;;;;;;;;6483869;39;8976;-55
2023/08/28 16:29:33;;;;;;;;;18.50;16.75;;;;;;;;6482959;46;9053;-53
2023/08/28 16:35:36;;;;;;;;;17.50;17.25;;;;;;;;6483983;39;8934;-55
2023/08/28 16:41:39;;;;;;;;;28.25;28.25;;;;;;;;6486251;31;8950;-55
2023/08/28 16:47:42;;;;;;;;;31.25;30.00;;;;;;;;6485171;39;8930;-54
2023/08/28 16:53:44;;;;;;;;;20.50;18.25;;;;;;;;6486986;31;8914;-56
2023/08/28 16:59:47;;;;;;;;;20.50;20.50;;;;;;;;6489531;31;8920;-57
2023/08/28 17:05:56;;;;;;;;;23.50;23.50;;;;;;;;6488160;46;8857;-55
2023/08/28 17:12:00;;;;;;;;;33.75;31.50;;;;;;;;6487978;46;9026;-53
2023/08/28 17:18:04;;;;;;;;;28.00;26.75;;;;;;;;6488755;39;8955;-55
2023/08/28 17:24:08;;;;;;;;;22.50;21.75;;;;;;;;6488688;39;9585;-55
2023/08/28 17:30:11;;;;;;;;;22.00;19.50;;;;;;;;6489678;31;9687;-56
2023/08/28 17:36:15;;;;;;;;;23.25;22.50;;;;;;;;6489043;39;9537;-54
2023/08/28 17:42:18;;;;;;;;;61.00;49.00;;;;;;;;6488623;39;8853;-56
2023/08/28 17:48:20;;;;;;;;;25.25;24.25;;;;;;;;6487127;46;9015;-56
2023/08/28 17:54:24;;;;;;;;;20.00;19.75;;;;;;;;6487739;46;8901;-56
2023/08/28 18:00:27;;;;;;;;;54.75;43.75;;;;;;;;6488663;39;8975;-57
2023/08/28 18:06:32;;;;;;;;;28.00;26.50;;;;;;;;6487865;39;8893;-55
2023/08/28 18:12:37;;;;;;;;;31.00;28.25;;;;;;;;6488495;31;8964;-56
2023/08/28 18:18:41;;;;;;;;;24.00;22.50;;;;;;;;6488391;39;8921;-57
2023/08/28 18:24:44;;;;;;;;;24.50;23.50;;;;;;;;6488394;39;9488;-56
2023/08/28 18:30:47;;;;;;;;;19.25;19.25;;;;;;;;6488725;39;8921;-56
2023/08/28 18:36:49;;;;;;;;;17.75;17.25;;;;;;;;6487644;39;8947;-55
2023/08/28 18:42:55;;;;;;;;;22.50;20.50;;;;;;;;6488177;39;8960;-54
2023/08/28 18:48:57;;;;;;;;;21.00;21.00;;;;;;;;6488358;39;9912;-56
2023/08/28 18:54:59;;;;;;;;;21.50;19.50;;;;;;;;6487845;39;9029;-54
2023/08/28 19:01:03;;;;;;;;;19.50;17.00;;;;;;;;6488452;39;9569;-56
2023/08/28 19:07:06;;;;;;;;;21.00;19.25;;;;;;;;6486947;39;9959;-57
2023/08/28 19:13:09;;;;;;;;;20.75;18.75;;;;;;;;6489265;31;9000;-56
2023/08/28 19:19:11;;;;;;;;;19.50;18.50;;;;;;;;6486875;39;8905;-56
2023/08/28 19:25:13;;;;;;;;;17.75;15.00;;;;;;;;6487303;39;8896;-55
2023/08/28 19:31:16;;;;;;;;;17.75;16.00;;;;;;;;6487215;46;9028;-53
2023/08/28 19:37:20;;;;;;;;;16.50;15.50;;;;;;;;6487773;39;8856;-57
2023/08/28 19:43:22;;;;;;;;;19.75;18.50;;;;;;;;6488004;31;8897;-57
2023/08/28 19:49:25;;;;;;;;;15.25;14.25;;;;;;;;6487110;46;8863;-55
2023/08/28 19:55:27;;;;;;;;;15.25;15.25;;;;;;;;6487134;39;8933;-54
2023/08/28 20:01:30;;;;;;;;;18.00;16.50;;;;;;;;6485713;39;9014;-56
2023/08/28 20:07:33;;;;;;;;;20.50;16.75;;;;;;;;6487565;31;9023;-55
2023/08/28 20:13:36;;;;;;;;;23.50;18.75;;;;;;;;6490195;39;8884;-56
2023/08/28 20:19:39;;;;;;;;;16.00;16.00;;;;;;;;6488705;46;9096;-56
2023/08/28 20:25:44;;;;;;;;;18.00;17.25;;;;;;;;6488558;39;8911;-56
2023/08/28 20:31:47;;;;;;;;;19.00;16.50;;;;;;;;6488686;46;8913;-55
2023/08/28 20:37:49;;;;;;;;;19.75;15.50;;;;;;;;6489058;39;8880;-54
2023/08/28 20:43:52;;;;;;;;;18.50;17.75;;;;;;;;6488257;31;8905;-56
2023/08/28 20:49:55;;;;;;;;;16.50;15.50;;;;;;;;6486948;39;8927;-53
2023/08/28 20:55:57;;;;;;;;;17.50;17.00;;;;;;;;6487889;31;8925;-57
2023/08/28 21:02:00;;;;;;;;;17.50;16.25;;;;;;;;6488305;39;8919;-55
2023/08/28 21:08:02;;;;;;;;;18.50;17.50;;;;;;;;6487593;46;8960;-55
2023/08/28 21:14:05;;;;;;;;;17.25;17.25;;;;;;;;6489048;31;8871;-55
2023/08/28 21:20:11;;;;;;;;;18.50;18.50;;;;;;;;6487656;39;8889;-54
2023/08/28 21:26:14;;;;;;;;;17.50;16.50;;;;;;;;6487936;39;9440;-56
2023/08/28 21:32:16;;;;;;;;;18.75;18.75;;;;;;;;6488754;39;9032;-56
2023/08/28 21:38:19;;;;;;;;;16.67;16.67;;;;;;;;6487513;39;8966;-54
2023/08/28 21:44:21;;;;;;;;;15.00;14.50;;;;;;;;6489505;31;9006;-56
2023/08/28 21:50:24;;;;;;;;;16.75;15.50;;;;;;;;6488063;39;9110;-55
2023/08/28 21:56:47;;;;;;;;;20.00;18.25;;;;;;;;6488511;39;8993;-55
2023/08/28 22:03:11;;;;;;;;;16.00;14.50;;;;;;;;6488647;39;9529;-56
2023/08/28 22:09:32;;;;;;;;;18.50;17.50;;;;;;;;6486891;39;9537;-54
2023/08/28 22:15:58;;;;;;;;;17.25;16.25;;;;;;;;6487336;31;8856;-54
2023/08/28 22:22:03;;;;;;;;;18.50;15.50;;;;;;;;6488047;39;9623;-58
2023/08/28 22:28:08;;;;;;;;;15.00;15.00;;;;;;;;6487687;31;8875;-54
2023/08/28 22:34:10;;;;;;;;;15.50;14.75;;;;;;;;6488144;39;8893;-52
2023/08/28 22:40:12;;;;;;;;;17.25;16.00;;;;;;;;6488978;39;8991;-53
2023/08/28 22:46:14;;;;;;;;;16.25;15.50;;;;;;;;6486999;46;8885;-55
2023/08/28 22:52:20;;;;;;;;;16.25;16.25;;;;;;;;6487567;31;8990;-53
2023/08/28 22:58:24;;;;;;;;;13.50;11.25;;;;;;;;6486640;31;8889;-55
2023/08/28 23:04:28;;;;;;;;;18.75;16.25;;;;;;;;6486582;39;9475;-55
2023/08/28 23:10:32;;;;;;;;;17.75;17.75;;;;;;;;6487645;39;8908;-56
2023/08/28 23:16:36;;;;;;;;;16.25;16.00;;;;;;;;6487572;31;8875;-53
2023/08/28 23:22:39;;;;;;;;;19.00;18.00;;;;;;;;6487323;46;8913;-55
2023/08/28 23:28:41;;;;;;;;;19.00;19.00;;;;;;;;6486284;39;9681;-54
2023/08/28 23:34:46;;;;;;;;;18.25;16.75;;;;;;;;6486833;39;8869;-54
2023/08/28 23:40:48;;;;;;;;;20.25;18.00;;;;;;;;6487218;46;8983;-55
2023/08/28 23:46:51;;;;;;;;;17.75;16.25;;;;;;;;6486325;46;8897;-56
2023/08/28 23:52:54;;;;;;;;;15.75;14.25;;;;;;;;6487142;39;8952;-54
2023/08/28 23:59:01;;;;;;;;;18.25;17.50;;;;;;;;6486083;31;8941;-54
